臺北飛航情報區 - 海峽席

METAR RCTP 140400Z 34007KT 300V020 9999 FEW015 BKN025 BKN050 32/28 Q1008 NOSIG RMK A2978=

站台狀態:Online
最後更新:2022-08-14 12:00:02